aviador You're here:

EYKA Decoded Metar

KAUNAS in LITHUANIA
Report Time2018-07-16 08:20:00
UTC Time2018-07-16 08:44:41
Flight Rules vfr VFR
Wind010° at 06 kt
W.Decomp.*RWY 08: 1.5 kt HW 5.8 kt LCW
W.Rank010° ranks 27
Current wind is above 010° avg. (5.6)
Visibility9999 m
Phenomena:N/A
Clouds:N/A
Expected CloudBase > 2,000 ft AGL from Temp-Dew spread
CeilingNone
Temp23°C (ISA +9)
Dew Point18°C (74% RH)
QNH1010 hPa
Density Alt1,617 ft
Elevation253 ft
Report Wrong Elevation
Raw Report
METAR EYKA 160820Z 01006KT 330V040 CAVOK 23/18 Q1010=

Extra information for EYKA:More info

Metar Taf Metar & Taf Last 4 Metars F.Rules Stats Wind Profile Meteogram Temp Stats Airport Information Weather charts Add Link Nearby VenuesMetar ALERT Operation Metar Decoded Social comments